Time;durP1;ratioP1;P1;durP2;ratioP2;P2;SDS_P1;SDS_P2;PMS_P1;PMS_P2;Temp;Humidity;BMP_temperature;BMP_pressure;BME280_temperature;BME280_humidity;BME280_pressure;Samples;Min_cycle;Max_cycle;Signal;HPM_P1;HPM_P2
2022/12/09 00:01:04;;;;;;;44.70;24.97;;;;;;;1.48;100.00;99387.50;5061420;28;20515;-61
2022/12/09 00:03:31;;;;;;;55.10;27.40;;;;;;;1.54;100.00;99381.78;5060046;28;20465;-60
2022/12/09 00:05:57;;;;;;;45.50;25.57;;;;;;;1.39;100.00;99381.06;5055430;28;20473;-61
2022/12/09 00:08:24;;;;;;;40.73;23.80;;;;;;;1.42;100.00;99385.25;5064344;28;20696;-61
2022/12/09 00:10:52;;;;;;;39.80;23.23;;;;;;;1.45;100.00;99385.91;5063904;28;20913;-60
2022/12/09 00:13:19;;;;;;;44.50;24.50;;;;;;;1.52;100.00;99386.31;5063337;28;20500;-61
2022/12/09 00:15:45;;;;;;;35.63;22.70;;;;;;;1.44;100.00;99380.72;5063868;28;20519;-60
2022/12/09 00:18:12;;;;;;;45.83;24.73;;;;;;;1.27;100.00;99387.16;5063969;28;20465;-59
2022/12/09 00:20:38;;;;;;;45.83;25.97;;;;;;;1.21;100.00;99387.53;5062418;28;20518;-60
2022/12/09 00:23:05;;;;;;;44.23;23.57;;;;;;;1.30;100.00;99389.56;5064438;28;20452;-61
2022/12/09 00:25:32;;;;;;;45.37;26.57;;;;;;;1.30;100.00;99390.41;5062033;28;20982;-60
2022/12/09 00:28:00;;;;;;;39.80;24.87;;;;;;;1.27;100.00;99385.34;5063507;28;21109;-60
2022/12/09 00:30:26;;;;;;;46.80;26.50;;;;;;;1.35;100.00;99386.63;5062475;28;20536;-60
2022/12/09 00:32:53;;;;;;;44.47;26.17;;;;;;;1.27;100.00;99381.88;5064009;28;20461;-60
2022/12/09 00:35:20;;;;;;;48.40;26.77;;;;;;;1.30;100.00;99385.16;5062978;28;20479;-60
2022/12/09 00:37:48;;;;;;;49.20;27.83;;;;;;;1.33;100.00;99394.63;5063553;28;20509;-60
2022/12/09 00:40:15;;;;;;;46.17;26.33;;;;;;;1.35;100.00;99394.53;5063054;28;20493;-60
2022/12/09 00:42:42;;;;;;;42.53;25.60;;;;;;;1.34;100.00;99406.00;5061585;28;20496;-60
2022/12/09 00:45:10;;;;;;;49.20;27.30;;;;;;;1.35;100.00;99405.06;5063446;28;20476;-61
2022/12/09 00:47:37;;;;;;;46.40;27.33;;;;;;;1.44;100.00;99407.06;5060353;28;20445;-60
2022/12/09 00:50:04;;;;;;;48.40;26.97;;;;;;;1.51;100.00;99405.69;5059388;28;20537;-60
2022/12/09 00:52:31;;;;;;;50.37;29.00;;;;;;;1.41;100.00;99397.59;5083543;28;20508;-61
2022/12/09 00:54:57;;;;;;;49.93;28.40;;;;;;;1.45;100.00;99398.22;5078557;28;20477;-60
2022/12/09 00:57:24;;;;;;;46.80;26.87;;;;;;;1.57;100.00;99397.41;5057456;28;20515;-60
2022/12/09 00:59:51;;;;;;;47.63;27.60;;;;;;;1.50;100.00;99402.22;5062450;28;20545;-60
2022/12/09 01:02:18;;;;;;;43.53;26.40;;;;;;;1.52;100.00;99407.41;5056221;28;20486;-60
2022/12/09 01:04:45;;;;;;;53.93;28.20;;;;;;;1.46;100.00;99403.41;5047023;28;20508;-60
2022/12/09 01:07:12;;;;;;;47.90;27.63;;;;;;;1.63;100.00;99399.63;5062679;28;20520;-61
2022/12/09 01:09:38;;;;;;;52.87;29.20;;;;;;;1.59;100.00;99399.94;5062738;28;20481;-60
2022/12/09 01:12:05;;;;;;;48.57;27.27;;;;;;;1.61;100.00;99398.03;5062245;28;20560;-60
2022/12/09 01:14:32;;;;;;;40.27;25.70;;;;;;;1.60;100.00;99393.72;5062532;28;20453;-60
2022/12/09 01:16:58;;;;;;;49.17;28.37;;;;;;;1.56;100.00;99402.75;5062253;28;20480;-60
2022/12/09 01:19:26;;;;;;;56.00;29.10;;;;;;;1.41;100.00;99408.13;5063091;28;20517;-60
2022/12/09 01:21:54;;;;;;;52.93;28.17;;;;;;;1.42;100.00;99404.53;5062817;28;20560;-60
2022/12/09 01:24:20;;;;;;;50.10;27.90;;;;;;;1.49;100.00;99407.59;5061641;28;20453;-60
2022/12/09 01:26:47;;;;;;;53.40;27.63;;;;;;;1.55;100.00;99411.63;5062953;28;20492;-61
2022/12/09 01:29:15;;;;;;;50.67;29.07;;;;;;;1.55;100.00;99412.47;5051363;28;20476;-60
2022/12/09 01:31:41;;;;;;;50.50;31.10;;;;;;;1.50;100.00;99415.41;5062470;28;20508;-60
2022/12/09 01:34:08;;;;;;;47.57;28.47;;;;;;;1.58;100.00;99400.88;5062934;28;20472;-61
2022/12/09 01:36:36;;;;;;;48.27;26.23;;;;;;;1.62;100.00;99403.19;5062094;28;20548;-60
2022/12/09 01:39:03;;;;;;;52.70;28.57;;;;;;;1.63;100.00;99412.81;5062367;28;20445;-61
2022/12/09 01:41:30;;;;;;;44.90;26.73;;;;;;;1.63;100.00;99409.31;5062403;28;20497;-61
2022/12/09 01:44:11;;;;;;;54.07;29.07;;;;;;;1.68;100.00;99407.19;5062122;28;20525;-60
2022/12/09 01:46:37;;;;;;;50.87;27.17;;;;;;;1.73;100.00;99405.09;5062184;28;21032;-60
2022/12/09 01:49:06;;;;;;;46.80;27.17;;;;;;;1.72;100.00;99407.81;5062106;28;20441;-60
2022/12/09 01:51:32;;;;;;;47.23;26.67;;;;;;;1.73;100.00;99401.63;5062697;28;20591;-60
2022/12/09 01:54:01;;;;;;;60.87;30.60;;;;;;;1.76;100.00;99399.63;5062458;28;20498;-61
2022/12/09 01:56:29;;;;;;;51.47;30.27;;;;;;;1.80;100.00;99402.88;5060097;28;20472;-60
2022/12/09 01:58:59;;;;;;;52.73;28.33;;;;;;;1.76;100.00;99407.53;5061410;28;20485;-61
2022/12/09 02:01:26;;;;;;;54.03;29.30;;;;;;;1.74;100.00;99412.06;5061561;28;20504;-61
2022/12/09 02:03:53;;;;;;;57.43;30.00;;;;;;;1.76;100.00;99410.16;5061949;28;20477;-60
2022/12/09 02:06:20;;;;;;;67.07;32.93;;;;;;;1.87;100.00;99398.88;5061189;28;20516;-60
2022/12/09 02:08:47;;;;;;;64.93;33.30;;;;;;;1.63;100.00;99391.72;5062305;28;20477;-60
2022/12/09 02:11:19;;;;;;;63.50;30.67;;;;;;;1.85;100.00;99390.22;5061115;28;20497;-61
2022/12/09 02:13:50;;;;;;;60.10;30.87;;;;;;;1.80;100.00;99394.97;5061814;28;20481;-61
2022/12/09 02:16:19;;;;;;;51.77;30.43;;;;;;;1.78;100.00;99389.81;5061868;28;20480;-60
2022/12/09 02:18:50;;;;;;;58.57;28.60;;;;;;;1.76;100.00;99391.72;5061590;28;20528;-60
2022/12/09 02:21:21;;;;;;;51.80;28.30;;;;;;;1.77;100.00;99397.81;5059934;28;20486;-60
2022/12/09 02:23:51;;;;;;;60.90;30.43;;;;;;;1.81;100.00;99396.69;5062293;28;20473;-60
2022/12/09 02:26:24;;;;;;;59.07;29.27;;;;;;;1.75;100.00;99394.44;5061261;28;20469;-61
2022/12/09 02:29:14;;;;;;;49.13;28.30;;;;;;;1.78;100.00;99399.50;5061478;28;20457;-61
2022/12/09 02:31:58;;;;;;;54.20;30.70;;;;;;;1.68;100.00;99392.25;5061020;28;20477;-60
2022/12/09 02:34:28;;;;;;;57.70;29.60;;;;;;;1.64;100.00;99395.19;5061553;28;20449;-61
2022/12/09 02:37:01;;;;;;;53.13;30.30;;;;;;;1.63;100.00;99385.59;5060931;28;20493;-60
2022/12/09 02:39:33;;;;;;;60.30;30.20;;;;;;;1.63;100.00;99397.00;5061278;28;20456;-60
2022/12/09 02:42:00;;;;;;;55.73;31.73;;;;;;;1.57;100.00;99384.22;5060617;28;20473;-60
2022/12/09 02:44:27;;;;;;;53.13;29.50;;;;;;;1.63;100.00;99382.94;5060644;28;20454;-61
2022/12/09 02:46:55;;;;;;;54.60;28.87;;;;;;;1.71;100.00;99374.53;5061102;28;20481;-61
2022/12/09 02:49:22;;;;;;;58.20;31.17;;;;;;;1.72;100.00;99382.34;5060604;28;21048;-61
2022/12/09 02:51:51;;;;;;;50.60;25.83;;;;;;;1.75;100.00;99374.19;5061241;28;20470;-60
2022/12/09 02:54:19;;;;;;;50.10;28.10;;;;;;;1.74;100.00;99377.81;5061537;28;20449;-61
2022/12/09 02:56:51;;;;;;;49.73;27.20;;;;;;;1.74;100.00;99369.06;5060803;28;20478;-61
2022/12/09 02:59:18;;;;;;;53.50;29.77;;;;;;;1.69;100.00;99367.56;5060126;28;20460;-60
2022/12/09 03:01:49;;;;;;;56.70;28.43;;;;;;;1.64;100.00;99372.31;5060962;28;20508;-62
2022/12/09 03:04:19;;;;;;;53.60;28.13;;;;;;;1.65;100.00;99371.38;5061091;28;20946;-61
2022/12/09 03:06:51;;;;;;;52.00;27.07;;;;;;;1.60;100.00;99368.22;5060695;28;20496;-61
2022/12/09 03:09:22;;;;;;;49.47;26.90;;;;;;;1.55;100.00;99370.31;5060791;28;20437;-60
2022/12/09 03:11:49;;;;;;;56.37;27.93;;;;;;;1.68;100.00;99365.03;5060280;28;20488;-61
2022/12/09 03:14:19;;;;;;;60.23;29.00;;;;;;;1.72;100.00;99369.16;5060411;28;20464;-61
2022/12/09 03:16:49;;;;;;;54.83;27.50;;;;;;;1.83;100.00;99371.06;5060831;28;21001;-60
2022/12/09 03:19:20;;;;;;;53.57;28.60;;;;;;;1.74;100.00;99371.69;5060314;28;20425;-61
2022/12/09 03:21:49;;;;;;;53.70;28.20;;;;;;;1.79;100.00;99364.28;5060010;28;20482;-61
2022/12/09 03:24:21;;;;;;;55.30;26.93;;;;;;;1.87;100.00;99369.88;5060663;28;20444;-60
2022/12/09 03:26:50;;;;;;;50.53;26.20;;;;;;;1.90;100.00;99364.41;5060081;28;21198;-60
2022/12/09 03:29:18;;;;;;;52.63;28.80;;;;;;;1.94;100.00;99357.94;5059920;28;20454;-61
2022/12/09 03:31:46;;;;;;;46.93;25.00;;;;;;;1.91;100.00;99360.81;5060031;28;20470;-61
2022/12/09 03:34:15;;;;;;;48.63;25.20;;;;;;;1.98;100.00;99363.84;5061246;28;20437;-61
2022/12/09 03:36:43;;;;;;;48.73;27.70;;;;;;;1.94;100.00;99354.47;5060576;28;20483;-61
2022/12/09 03:39:13;;;;;;;45.80;26.17;;;;;;;1.99;100.00;99352.38;5060768;28;20445;-61
2022/12/09 03:41:45;;;;;;;39.90;25.90;;;;;;;1.91;100.00;99347.66;5059900;28;20485;-61
2022/12/09 03:44:14;;;;;;;44.83;22.17;;;;;;;1.94;100.00;99349.22;5060029;28;20534;-61
2022/12/09 03:46:41;;;;;;;36.80;18.90;;;;;;;1.89;100.00;99346.88;5060586;28;20480;-60
2022/12/09 03:49:08;;;;;;;35.30;18.93;;;;;;;1.80;100.00;99343.09;5060043;28;20863;-60
2022/12/09 03:51:36;;;;;;;36.13;18.47;;;;;;;2.00;100.00;99351.44;5060058;28;20477;-60
2022/12/09 03:54:07;;;;;;;34.50;18.87;;;;;;;1.80;100.00;99353.66;5060410;28;20464;-60
2022/12/09 03:56:37;;;;;;;29.17;15.73;;;;;;;1.79;100.00;99338.81;5060025;28;20469;-60
2022/12/09 03:59:11;;;;;;;27.17;15.90;;;;;;;1.71;100.00;99351.66;5059964;28;20453;-60
2022/12/09 04:01:38;;;;;;;24.83;14.40;;;;;;;1.66;100.00;99345.88;5059785;28;20489;-60
2022/12/09 04:04:05;;;;;;;22.87;12.80;;;;;;;1.72;100.00;99345.44;5060902;28;20930;-60
2022/12/09 04:06:32;;;;;;;24.13;13.30;;;;;;;1.78;100.00;99339.75;5059646;28;21007;-60
2022/12/09 04:08:59;;;;;;;19.07;10.83;;;;;;;1.56;100.00;99339.53;5061099;28;20464;-60
2022/12/09 04:11:26;;;;;;;17.73;12.07;;;;;;;1.42;100.00;99341.31;5059711;28;20477;-60
2022/12/09 04:13:53;;;;;;;21.53;11.83;;;;;;;1.47;100.00;99338.38;5059968;28;20456;-60
2022/12/09 04:16:21;;;;;;;20.10;12.03;;;;;;;1.37;100.00;99339.97;5059302;28;20473;-60
2022/12/09 04:18:48;;;;;;;18.17;10.90;;;;;;;1.56;100.00;99342.16;5059906;28;20453;-61
2022/12/09 04:21:15;;;;;;;16.53;9.93;;;;;;;1.56;100.00;99339.53;5059239;28;20661;-60
2022/12/09 04:23:42;;;;;;;17.07;11.10;;;;;;;1.53;100.00;99334.47;5060601;28;20429;-61
2022/12/09 04:26:13;;;;;;;17.47;11.70;;;;;;;1.55;100.00;99343.13;5059639;28;20483;-60
2022/12/09 04:28:39;;;;;;;16.97;11.27;;;;;;;1.46;100.00;99340.19;5059791;28;20441;-60
2022/12/09 04:31:10;;;;;;;16.40;10.07;;;;;;;1.48;100.00;99332.19;5059615;28;20473;-60
2022/12/09 04:33:38;;;;;;;16.13;10.30;;;;;;;1.50;100.00;99335.53;5060682;28;20907;-60
2022/12/09 04:36:06;;;;;;;19.37;11.60;;;;;;;1.49;100.00;99325.94;5059453;28;20480;-61
2022/12/09 04:38:33;;;;;;;16.73;11.87;;;;;;;1.49;100.00;99337.34;5057279;28;20504;-60
2022/12/09 04:41:00;;;;;;;19.47;13.30;;;;;;;1.56;100.00;99331.63;5059393;28;20485;-61
2022/12/09 04:43:26;;;;;;;18.57;13.67;;;;;;;1.63;100.00;99338.16;5059474;28;20441;-60
2022/12/09 04:45:53;;;;;;;20.13;13.10;;;;;;;1.68;100.00;99343.97;5061852;28;20484;-61
2022/12/09 04:48:20;;;;;;;17.57;12.70;;;;;;;1.62;100.00;99341.75;5063016;28;20453;-60
2022/12/09 04:50:48;;;;;;;15.00;10.10;;;;;;;1.68;100.00;99336.06;5062567;28;20469;-60
2022/12/09 04:53:15;;;;;;;17.10;10.73;;;;;;;1.66;100.00;99332.69;5064519;28;20436;-60
2022/12/09 04:55:42;;;;;;;19.47;12.37;;;;;;;1.70;100.00;99336.78;5063070;28;20473;-60
2022/12/09 04:58:09;;;;;;;19.53;12.70;;;;;;;1.72;100.00;99329.66;5024977;28;20459;-61
2022/12/09 05:00:35;;;;;;;17.77;12.30;;;;;;;1.62;100.00;99333.88;5058616;28;20486;-60
2022/12/09 05:03:02;;;;;;;18.13;12.53;;;;;;;1.52;100.00;99327.53;5063405;28;20443;-60
2022/12/09 05:05:29;;;;;;;20.20;12.83;;;;;;;1.49;100.00;99337.34;5062542;28;21079;-60
2022/12/09 05:07:57;;;;;;;16.87;12.50;;;;;;;1.57;100.00;99333.34;5024224;28;20431;-61
2022/12/09 05:10:24;;;;;;;17.67;13.27;;;;;;;1.60;100.00;99343.66;5057753;28;20460;-60
2022/12/09 05:12:51;;;;;;;23.77;15.30;;;;;;;1.54;100.00;99334.38;5062808;28;20465;-61
2022/12/09 05:15:18;;;;;;;20.13;14.00;;;;;;;1.73;100.00;99343.66;5058364;28;20438;-60
2022/12/09 05:17:45;;;;;;;24.70;13.83;;;;;;;1.73;100.00;99343.66;5049115;28;20446;-61
2022/12/09 05:20:12;;;;;;;17.50;12.90;;;;;;;1.75;100.00;99342.56;5043047;28;20473;-60
2022/12/09 05:22:39;;;;;;;20.47;12.93;;;;;;;1.64;100.00;99337.22;5063003;28;20493;-60
2022/12/09 05:25:09;;;;;;;19.13;13.13;;;;;;;1.56;100.00;99342.16;5062912;28;20426;-61
2022/12/09 05:27:36;;;;;;;17.17;11.70;;;;;;;1.60;100.00;99333.13;5062811;28;20503;-60
2022/12/09 05:30:03;;;;;;;19.00;13.80;;;;;;;1.61;100.00;99334.81;5063037;28;20464;-61
2022/12/09 05:32:30;;;;;;;16.37;12.23;;;;;;;1.57;100.00;99331.53;5061274;28;20989;-61
2022/12/09 05:34:57;;;;;;;22.17;13.67;;;;;;;1.72;100.00;99331.41;5062995;28;20449;-60
2022/12/09 05:37:24;;;;;;;18.40;13.20;;;;;;;1.82;100.00;99328.06;5062684;28;20520;-61
2022/12/09 05:39:50;;;;;;;19.50;13.33;;;;;;;1.68;100.00;99329.00;5062745;28;20465;-60
2022/12/09 05:42:18;;;;;;;22.30;13.57;;;;;;;1.61;100.00;99321.63;5061715;28;20487;-61
2022/12/09 05:44:45;;;;;;;20.77;13.80;;;;;;;1.79;100.00;99324.75;5062600;28;20464;-60
2022/12/09 05:47:12;;;;;;;22.07;12.87;;;;;;;1.77;100.00;99322.25;5050139;28;20491;-60
2022/12/09 05:49:39;;;;;;;21.70;15.07;;;;;;;1.66;100.00;99322.16;5043678;28;20449;-61
2022/12/09 05:52:06;;;;;;;20.10;14.03;;;;;;;1.65;100.00;99315.19;5061514;28;20472;-60
2022/12/09 05:54:33;;;;;;;23.87;13.50;;;;;;;1.71;100.00;99311.31;5061639;28;20452;-60
2022/12/09 05:57:02;;;;;;;19.33;13.77;;;;;;;1.63;100.00;99310.06;5058913;28;20494;-61
2022/12/09 05:59:31;;;;;;;19.23;12.30;;;;;;;1.56;100.00;99307.94;5060964;28;21024;-60
2022/12/09 06:01:57;;;;;;;23.43;15.23;;;;;;;1.45;100.00;99309.50;5060951;28;20477;-61
2022/12/09 06:04:24;;;;;;;19.07;13.63;;;;;;;1.43;100.00;99315.84;5060749;28;20444;-61
2022/12/09 06:06:51;;;;;;;20.27;14.60;;;;;;;1.42;100.00;99308.88;5055819;28;20481;-60
2022/12/09 06:09:18;;;;;;;23.87;15.97;;;;;;;1.36;100.00;99309.31;5061875;28;21235;-60
2022/12/09 06:11:44;;;;;;;25.17;15.60;;;;;;;1.34;100.00;99319.09;5059553;28;20473;-68
2022/12/09 06:14:11;;;;;;;19.30;12.17;;;;;;;1.20;100.00;99314.75;5042902;28;20473;-62
2022/12/09 06:16:39;;;;;;;16.50;13.20;;;;;;;1.18;100.00;99324.56;5057481;28;20469;-69
2022/12/09 06:19:06;;;;;;;20.67;14.17;;;;;;;1.14;100.00;99323.94;5057499;28;20441;-67
2022/12/09 06:21:33;;;;;;;17.83;12.87;;;;;;;1.12;100.00;99323.19;5059563;28;20496;-69
2022/12/09 06:24:00;;;;;;;22.70;13.00;;;;;;;1.10;100.00;99317.19;5062443;28;20493;-68
2022/12/09 06:26:28;;;;;;;19.00;11.93;;;;;;;1.04;100.00;99321.09;5060232;28;20515;-68
2022/12/09 06:28:56;;;;;;;20.97;14.40;;;;;;;0.99;100.00;99323.19;5061509;28;21015;-68
2022/12/09 06:31:23;;;;;;;21.83;14.63;;;;;;;0.89;100.00;99320.31;5060932;28;20478;-68
2022/12/09 06:33:51;;;;;;;24.57;15.83;;;;;;;0.85;100.00;99321.47;5061640;28;20447;-69
2022/12/09 06:36:18;;;;;;;23.10;14.60;;;;;;;0.82;100.00;99318.22;5060624;28;20507;-68
2022/12/09 06:38:45;;;;;;;20.87;14.53;;;;;;;0.86;100.00;99314.41;5061701;28;20492;-68
2022/12/09 06:41:13;;;;;;;22.83;14.60;;;;;;;0.85;100.00;99310.94;5059989;28;20539;-67
2022/12/09 06:43:41;;;;;;;17.80;11.63;;;;;;;0.80;100.00;99313.03;5060395;28;20454;-65
2022/12/09 06:46:11;;;;;;;21.70;14.77;;;;;;;0.81;100.00;99317.34;5060105;28;20556;-67
2022/12/09 06:48:38;;;;;;;18.80;13.47;;;;;;;0.98;100.00;99318.84;5057114;28;20841;-68
2022/12/09 06:51:07;;;;;;;27.33;16.67;;;;;;;0.91;100.00;99309.69;5059781;28;20470;-68
2022/12/09 06:53:33;;;;;;;24.60;16.73;;;;;;;0.86;100.00;99309.97;5061817;28;20468;-68
2022/12/09 06:56:02;;;;;;;25.83;17.30;;;;;;;0.78;100.00;99307.00;5059678;28;20865;-68
2022/12/09 06:58:29;;;;;;;27.67;18.30;;;;;;;0.79;100.00;99308.72;5059981;28;20484;-67
2022/12/09 07:00:55;;;;;;;25.70;16.77;;;;;;;0.65;100.00;99312.25;5057304;28;20531;-69
2022/12/09 07:03:23;;;;;;;20.93;14.73;;;;;;;0.54;100.00;99314.75;5055069;28;20438;-68
2022/12/09 07:05:49;;;;;;;25.17;16.80;;;;;;;0.45;100.00;99326.72;5059936;28;20469;-68
2022/12/09 07:08:18;;;;;;;22.97;16.10;;;;;;;0.43;100.00;99325.94;5060459;28;20434;-68
2022/12/09 07:10:44;;;;;;;22.47;15.97;;;;;;;0.46;100.00;99317.03;5058786;28;20476;-68
2022/12/09 07:13:11;;;;;;;27.30;17.83;;;;;;;0.50;100.00;99326.41;5060690;28;20449;-68
2022/12/09 07:15:38;;;;;;;28.27;17.90;;;;;;;0.47;100.00;99329.22;5060023;28;20461;-68
2022/12/09 07:18:05;;;;;;;32.80;16.30;;;;;;;0.37;100.00;99323.72;5060080;28;20438;-67
2022/12/09 07:20:32;;;;;;;22.30;16.70;;;;;;;0.31;100.00;99335.50;5059773;28;20887;-67
2022/12/09 07:22:58;;;;;;;31.07;17.80;;;;;;;0.15;100.00;99329.50;5060677;28;20527;-68
2022/12/09 07:25:27;;;;;;;30.50;18.63;;;;;;;0.09;100.00;99335.16;5059825;28;20441;-69
2022/12/09 07:27:54;;;;;;;29.43;18.23;;;;;;;0.11;100.00;99331.47;5060391;28;20492;-67
2022/12/09 07:30:21;;;;;;;36.00;21.23;;;;;;;0.23;100.00;99340.38;5059992;28;20962;-67
2022/12/09 07:32:49;;;;;;;27.10;18.60;;;;;;;0.29;100.00;99341.78;5060396;28;20446;-67
2022/12/09 07:35:16;;;;;;;36.50;21.10;;;;;;;0.36;100.00;99341.31;5059971;28;20518;-68
2022/12/09 07:37:43;;;;;;;27.90;18.57;;;;;;;0.47;100.00;99343.22;5060171;28;20514;-68
2022/12/09 07:40:10;;;;;;;33.43;20.27;;;;;;;0.59;100.00;99338.09;5059648;28;20457;-68
2022/12/09 07:42:39;;;;;;;33.13;21.10;;;;;;;0.69;100.00;99344.47;5059754;28;20504;-68
2022/12/09 07:45:07;;;;;;;30.23;21.17;;;;;;;0.63;100.00;99347.50;5061255;28;20596;-68
2022/12/09 07:47:33;;;;;;;38.77;28.60;;;;;;;0.83;100.00;99351.44;5059634;28;20449;-68
2022/12/09 07:50:00;;;;;;;33.70;21.67;;;;;;;0.89;100.00;99348.44;5059374;28;21185;-65
2022/12/09 07:52:27;;;;;;;31.27;20.63;;;;;;;0.98;100.00;99352.22;5060192;28;20659;-68
2022/12/09 07:54:58;;;;;;;36.30;20.43;;;;;;;1.12;100.00;99349.53;5060450;28;20425;-68
2022/12/09 07:57:25;;;;;;;32.97;21.13;;;;;;;1.15;100.00;99353.72;5059820;28;20481;-68
2022/12/09 07:59:53;;;;;;;35.03;20.77;;;;;;;1.34;100.00;99361.22;5059879;28;20459;-68
2022/12/09 08:02:20;;;;;;;31.57;21.13;;;;;;;1.29;100.00;99345.75;5059339;28;20548;-68
2022/12/09 08:04:47;;;;;;;34.57;21.33;;;;;;;1.26;100.00;99346.78;5060285;28;20445;-68
2022/12/09 08:07:13;;;;;;;32.20;20.80;;;;;;;1.19;100.00;99349.94;5059531;28;20492;-68
2022/12/09 08:09:40;;;;;;;34.03;22.13;;;;;;;1.23;100.00;99351.44;5059858;28;20461;-67
2022/12/09 08:12:07;;;;;;;33.73;20.77;;;;;;;1.32;100.00;99361.34;5059654;28;21029;-68
2022/12/09 08:14:33;;;;;;;36.00;21.03;;;;;;;1.24;100.00;99351.31;5059929;28;20511;-68
2022/12/09 08:17:01;;;;;;;31.57;20.63;;;;;;;1.23;100.00;99351.44;5058896;28;20504;-67
2022/12/09 08:19:28;;;;;;;32.10;21.00;;;;;;;1.16;100.00;99358.06;5060004;28;20459;-67
2022/12/09 08:21:55;;;;;;;32.20;20.63;;;;;;;1.16;100.00;99347.53;5062995;28;20505;-68
2022/12/09 08:24:22;;;;;;;32.87;21.27;;;;;;;1.34;100.00;99355.97;5063659;28;20461;-68
2022/12/09 08:26:50;;;;;;;30.60;19.83;;;;;;;1.48;100.00;99353.25;5063418;28;20508;-67
2022/12/09 08:29:16;;;;;;;35.67;20.13;;;;;;;1.63;100.00;99367.16;5063586;28;20465;-64
2022/12/09 08:31:43;;;;;;;28.50;18.07;;;;;;;1.48;100.00;99363.78;5062595;28;20503;-64
2022/12/09 08:34:11;;;;;;;30.33;20.93;;;;;;;1.41;100.00;99354.63;5063998;28;20465;-63
2022/12/09 08:36:38;;;;;;;28.77;20.30;;;;;;;1.57;100.00;99359.69;5063456;28;20497;-64
2022/12/09 08:39:05;;;;;;;33.83;20.27;;;;;;;1.58;100.00;99361.34;5063728;28;20430;-64
2022/12/09 08:41:36;;;;;;;31.03;20.13;;;;;;;1.80;100.00;99358.09;5062264;28;20529;-64
2022/12/09 08:44:04;;;;;;;33.23;20.90;;;;;;;1.75;100.00;99360.19;5063405;28;20445;-64
2022/12/09 08:46:30;;;;;;;34.97;22.23;;;;;;;1.78;100.00;99362.63;5062588;28;20500;-64
2022/12/09 08:48:57;;;;;;;31.87;21.07;;;;;;;1.77;100.00;99364.41;5062777;28;20472;-64
2022/12/09 08:51:25;;;;;;;36.73;21.20;;;;;;;1.60;100.00;99362.09;5063064;28;20489;-67
2022/12/09 08:53:52;;;;;;;30.50;20.67;;;;;;;1.44;100.00;99359.66;5062607;28;20430;-67
2022/12/09 08:56:18;;;;;;;37.43;21.20;;;;;;;1.46;100.00;99365.69;5062918;28;20476;-67
2022/12/09 08:58:47;;;;;;;33.27;20.47;;;;;;;1.49;100.00;99368.09;5063416;28;20520;-67
2022/12/09 09:01:18;;;;;;;31.93;21.20;;;;;;;1.66;100.00;99372.22;5061999;28;20480;-67
2022/12/09 09:03:45;;;;;;;30.63;19.17;;;;;;;1.54;100.00;99368.63;5063943;28;20479;-67
2022/12/09 09:06:12;;;;;;;33.17;20.10;;;;;;;1.53;100.00;99369.59;5062539;28;20484;-66
2022/12/09 09:08:40;;;;;;;31.10;21.23;;;;;;;1.49;100.00;99368.09;5063127;28;20425;-66
2022/12/09 09:11:12;;;;;;;31.90;20.27;;;;;;;1.59;100.00;99370.94;5062162;28;20473;-67
2022/12/09 09:13:39;;;;;;;29.60;19.40;;;;;;;1.49;100.00;99368.09;5062956;28;20453;-67
2022/12/09 09:16:09;;;;;;;29.40;19.20;;;;;;;1.54;100.00;99367.78;5062409;28;20507;-67
2022/12/09 09:18:36;;;;;;;29.47;18.70;;;;;;;1.73;100.00;99368.19;5062892;28;20464;-67
2022/12/09 09:21:03;;;;;;;27.53;19.50;;;;;;;1.91;99.57;99370.50;5062231;28;21229;-67
2022/12/09 09:23:29;;;;;;;28.00;17.17;;;;;;;2.12;97.92;99369.00;5062634;28;20508;-68
2022/12/09 09:25:57;;;;;;;21.50;14.83;;;;;;;1.83;95.57;99374.53;5062764;28;20479;-68
2022/12/09 09:28:24;;;;;;;26.20;14.20;;;;;;;1.70;94.41;99365.78;5062285;28;20989;-67
2022/12/09 09:30:58;;;;;;;22.97;15.60;;;;;;;1.68;95.08;99368.53;5061254;28;20985;-67
2022/12/09 09:33:25;;;;;;;25.43;15.87;;;;;;;1.88;95.84;99375.03;5062729;28;20477;-66
2022/12/09 09:35:55;;;;;;;28.40;15.87;;;;;;;1.72;95.38;99377.06;5062654;28;20508;-68
2022/12/09 09:38:21;;;;;;;27.07;16.03;;;;;;;1.85;95.41;99377.88;5061929;28;20515;-67
2022/12/09 09:40:48;;;;;;;22.87;16.07;;;;;;;1.85;94.72;99380.53;5061600;28;20477;-68
2022/12/09 09:43:17;;;;;;;24.93;16.47;;;;;;;1.80;94.71;99374.72;5062059;28;20509;-67
2022/12/09 09:45:44;;;;;;;25.40;16.00;;;;;;;2.14;94.85;99374.19;5061838;28;20512;-67
2022/12/09 09:48:15;;;;;;;26.53;17.00;;;;;;;2.05;95.30;99388.84;5062511;28;20433;-68
2022/12/09 09:50:47;;;;;;;33.87;19.00;;;;;;;2.33;94.54;99386.91;5061666;28;20489;-68
2022/12/09 09:53:18;;;;;;;30.90;21.23;;;;;;;2.04;93.74;99376.59;5062036;28;20454;-67
2022/12/09 09:55:49;;;;;;;28.10;18.40;;;;;;;2.37;93.52;99386.56;5062196;28;20922;-66
2022/12/09 09:58:20;;;;;;;32.27;17.30;;;;;;;2.31;92.83;99383.50;5060906;28;20540;-67
2022/12/09 10:00:51;;;;;;;28.73;17.57;;;;;;;2.04;92.32;99379.25;5061187;28;20477;-66
2022/12/09 10:03:28;;;;;;;25.37;15.97;;;;;;;1.82;93.23;99387.81;5062298;28;20516;-67
2022/12/09 10:05:56;;;;;;;29.20;16.67;;;;;;;1.63;93.89;99372.41;5060935;28;20500;-67
2022/12/09 10:08:31;;;;;;;24.63;16.90;;;;;;;1.87;94.59;99377.78;5061231;28;20429;-67
2022/12/09 10:11:05;;;;;;;27.30;18.43;;;;;;;1.92;94.35;99377.47;5061180;28;21009;-68
2022/12/09 10:13:44;;;;;;;30.47;17.77;;;;;;;1.94;94.52;99376.41;5061280;28;20476;-66
2022/12/09 10:16:14;;;;;;;26.50;17.37;;;;;;;1.88;94.91;99377.69;5060760;28;20461;-66
2022/12/09 10:18:47;;;;;;;27.37;18.10;;;;;;;1.94;94.62;99368.50;5060822;28;20441;-67
2022/12/09 10:21:18;;;;;;;30.27;18.97;;;;;;;1.97;94.24;99368.28;5060543;28;20982;-65
2022/12/09 10:23:46;;;;;;;31.87;19.80;;;;;;;2.09;94.47;99363.94;5061368;28;20501;-68
2022/12/09 10:26:18;;;;;;;28.27;19.70;;;;;;;1.99;94.79;99360.28;5061441;28;20483;-67
2022/12/09 10:28:47;;;;;;;28.20;18.00;;;;;;;1.93;94.89;99358.06;5060731;28;20453;-67
2022/12/09 10:31:15;;;;;;;31.40;20.17;;;;;;;2.02;95.08;99354.78;5061031;28;21026;-67
2022/12/09 10:33:42;;;;;;;33.40;21.67;;;;;;;2.18;94.78;99352.75;5061387;28;20449;-68
2022/12/09 10:36:22;;;;;;;26.40;16.63;;;;;;;1.72;95.56;99361.25;5060859;28;20530;-68
2022/12/09 10:38:48;;;;;;;32.93;20.40;;;;;;;1.99;95.53;99357.63;5061453;28;20477;-68
2022/12/09 10:44:18;;;;;;;28.20;19.13;;;;;;;2.16;94.91;99346.75;5058654;28;20485;-68
2022/12/09 10:46:45;;;;;;;29.40;18.93;;;;;;;1.96;94.82;99355.22;5060943;28;20510;-66
2022/12/09 10:49:18;;;;;;;32.93;18.53;;;;;;;2.10;94.64;99344.56;5061016;28;20433;-67
2022/12/09 10:51:48;;;;;;;33.67;19.97;;;;;;;2.25;93.99;99343.44;5060170;28;20512;-68
2022/12/09 10:54:20;;;;;;;32.50;20.50;;;;;;;2.06;94.84;99340.44;5061255;28;20434;-67
2022/12/09 10:57:02;;;;;;;26.77;18.03;;;;;;;2.17;93.58;99339.66;5060745;28;21020;-68
2022/12/09 10:59:31;;;;;;;30.30;19.47;;;;;;;1.98;93.76;99346.25;5060169;28;20457;-66
2022/12/09 11:01:59;;;;;;;30.80;17.87;;;;;;;2.01;94.36;99342.53;5060392;28;20481;-68
2022/12/09 11:04:28;;;;;;;32.67;18.07;;;;;;;2.28;93.03;99347.66;5061205;28;20469;-67
2022/12/09 11:06:57;;;;;;;32.53;17.87;;;;;;;2.32;92.66;99338.56;5059324;28;20505;-68
2022/12/09 11:09:28;;;;;;;25.23;17.17;;;;;;;2.32;91.41;99335.09;5061443;28;20429;-68
2022/12/09 11:11:54;;;;;;;32.63;17.57;;;;;;;2.32;92.50;99341.19;5060238;28;20481;-67
2022/12/09 11:14:23;;;;;;;26.77;16.80;;;;;;;2.11;92.51;99340.13;5059646;28;20491;-68
2022/12/09 11:16:52;;;;;;;27.53;16.47;;;;;;;2.17;92.38;99340.53;5060858;28;20481;-67
2022/12/09 11:19:28;;;;;;;27.03;17.07;;;;;;;2.05;93.02;99341.41;5059695;28;20445;-67
2022/12/09 11:22:13;;;;;;;30.03;18.50;;;;;;;2.09;93.46;99342.03;5059624;28;20473;-68
2022/12/09 11:24:40;;;;;;;22.03;15.20;;;;;;;2.15;93.27;99342.41;5061179;28;20456;-67
2022/12/09 11:27:29;;;;;;;29.47;17.90;;;;;;;2.14;93.19;99339.91;5060035;28;20535;-68